createdAt,value
2023-02-06T00:03:29.496Z,23.30
2023-02-06T00:08:31.038Z,47.50
2023-02-06T00:13:32.881Z,24.90
2023-02-06T00:18:34.360Z,25.80
2023-02-06T00:23:36.032Z,24.50
2023-02-06T00:28:37.997Z,30.00
2023-02-06T00:33:40.023Z,26.20
2023-02-06T00:38:41.546Z,20.80
2023-02-06T00:43:43.733Z,19.00
2023-02-06T00:48:45.318Z,17.30
2023-02-06T00:53:47.262Z,19.70
2023-02-06T00:58:49.692Z,19.70
2023-02-06T01:03:51.149Z,15.90
2023-02-06T01:08:52.949Z,14.70
2023-02-06T01:13:54.632Z,46.70
2023-02-06T01:18:56.189Z,31.10
2023-02-06T01:23:57.811Z,25.30
2023-02-06T01:28:59.380Z,22.50
2023-02-06T01:34:01.194Z,22.70
2023-02-06T01:39:02.813Z,20.20
2023-02-06T01:44:17.086Z,20.10
2023-02-06T01:49:30.567Z,20.80
2023-02-06T01:54:32.422Z,19.20
2023-02-06T01:59:35.981Z,16.20
2023-02-06T02:04:37.517Z,18.30
2023-02-06T02:09:39.239Z,50.30
2023-02-06T02:14:43.823Z,26.90
2023-02-06T02:19:51.727Z,27.00
2023-02-06T02:25:18.306Z,26.70
2023-02-06T02:30:35.213Z,26.00
2023-02-06T02:40:54.755Z,21.40
2023-02-06T02:46:08.914Z,22.40
2023-02-06T02:51:11.508Z,18.90
2023-02-06T02:56:21.049Z,16.70
2023-02-06T03:01:28.864Z,17.60
2023-02-06T03:06:39.110Z,18.70
2023-02-06T03:11:47.034Z,23.90
2023-02-06T03:16:54.637Z,62.70
2023-02-06T03:21:56.181Z,29.10
2023-02-06T03:27:01.664Z,29.70
2023-02-06T03:32:13.598Z,24.90
2023-02-06T03:37:15.301Z,26.30
2023-02-06T03:42:17.855Z,26.10
2023-02-06T03:47:22.400Z,23.70
2023-02-06T03:52:28.864Z,24.90
2023-02-06T03:57:33.293Z,24.70
2023-02-06T04:02:36.526Z,30.50
2023-02-06T04:07:38.272Z,22.80
2023-02-06T04:12:40.056Z,19.60
2023-02-06T04:17:57.498Z,17.40
2023-02-06T04:23:01.239Z,49.90
2023-02-06T04:28:02.949Z,34.30
2023-02-06T04:33:05.071Z,30.10
2023-02-06T04:38:06.547Z,26.80
2023-02-06T04:43:08.197Z,24.00
2023-02-06T04:48:09.667Z,25.70
2023-02-06T04:53:11.152Z,24.20
2023-02-06T04:58:12.672Z,24.40
2023-02-06T05:03:14.184Z,25.30
2023-02-06T05:08:15.661Z,19.30
2023-02-06T05:13:17.172Z,20.80
2023-02-06T05:18:19.050Z,18.80
2023-02-06T05:23:20.568Z,17.50
2023-02-06T05:28:22.251Z,38.90
2023-02-06T05:33:24.074Z,31.60
2023-02-06T05:38:25.560Z,24.00
2023-02-06T05:43:27.212Z,26.80
2023-02-06T05:48:30.608Z,23.70
2023-02-06T05:53:32.200Z,19.90
2023-02-06T05:58:34.153Z,19.60
2023-02-06T06:03:37.316Z,26.40
2023-02-06T06:08:38.824Z,22.60
2023-02-06T06:13:40.373Z,20.90
2023-02-06T06:18:41.855Z,16.30
2023-02-06T06:23:43.399Z,19.10
2023-02-06T06:28:44.929Z,14.90
2023-02-06T06:33:46.663Z,17.20
2023-02-06T06:38:48.313Z,45.00
2023-02-06T06:43:51.511Z,36.30
2023-02-06T06:48:53.198Z,26.50
2023-02-06T06:53:55.227Z,23.20
2023-02-06T06:58:56.702Z,19.40
2023-02-06T07:03:59.475Z,19.60
2023-02-06T07:09:00.992Z,15.60
2023-02-06T07:14:03.859Z,14.00
2023-02-06T07:19:05.479Z,16.30
2023-02-06T07:24:07.301Z,5.90
2023-02-06T07:29:09.262Z,14.40
2023-02-06T07:34:11.074Z,27.30
2023-02-06T07:39:12.799Z,17.00
2023-02-06T07:44:14.505Z,16.30
2023-02-06T07:49:16.160Z,16.60
2023-02-06T07:54:19.920Z,8.80
2023-02-06T07:59:22.504Z,9.30
2023-02-06T08:04:24.056Z,12.30
2023-02-06T08:09:25.568Z,9.30
2023-02-06T08:14:28.558Z,12.60
2023-02-06T08:19:30.052Z,7.00
2023-02-06T08:24:31.903Z,20.30
2023-02-06T08:29:42.243Z,16.80
2023-02-06T08:34:44.525Z,13.80
2023-02-06T08:39:46.002Z,14.80
2023-02-06T08:44:47.568Z,13.70
2023-02-06T08:49:50.880Z,15.10
2023-02-06T08:54:52.961Z,15.30
2023-02-06T08:59:54.492Z,17.00
2023-02-06T09:04:56.028Z,13.50
2023-02-06T09:09:57.539Z,10.00
2023-02-06T09:14:59.050Z,16.80
2023-02-06T09:20:01.598Z,11.10
2023-02-06T09:25:03.205Z,13.80
2023-02-06T09:30:05.460Z,20.40
2023-02-06T09:35:07.113Z,19.60
2023-02-06T09:40:12.725Z,15.80
2023-02-06T09:45:20.137Z,17.00
2023-02-06T09:51:03.026Z,13.70
2023-02-06T09:56:32.574Z,17.10
2023-02-06T10:02:13.717Z,15.00
2023-02-06T10:07:52.518Z,10.00
2023-02-06T10:13:02.161Z,7.10
2023-02-06T10:18:23.892Z,10.90
2023-02-06T10:23:43.262Z,12.60
2023-02-06T10:28:49.888Z,13.50
2023-02-06T10:34:13.470Z,14.60
2023-02-06T10:39:42.720Z,22.40
2023-02-06T10:45:19.927Z,18.60
2023-02-06T10:50:49.344Z,13.70
2023-02-06T10:55:56.759Z,14.90
2023-02-06T11:01:00.859Z,8.80
2023-02-06T11:06:02.948Z,11.20
2023-02-06T11:11:25.144Z,6.20
2023-02-06T11:16:29.146Z,17.90
2023-02-06T11:21:51.040Z,15.00
2023-02-06T11:26:57.235Z,7.50
2023-02-06T11:32:01.355Z,11.90
2023-02-06T11:37:25.126Z,9.70
2023-02-06T11:42:28.464Z,5.90
2023-02-06T11:47:37.760Z,10.20
2023-02-06T11:52:41.993Z,11.10
2023-02-06T11:57:43.676Z,15.30
2023-02-06T12:02:52.272Z,12.30
2023-02-06T12:08:02.544Z,14.90
2023-02-06T12:13:15.114Z,14.40
2023-02-06T12:18:35.440Z,8.40
2023-02-06T12:24:01.439Z,7.50
2023-02-06T12:29:12.069Z,10.80
2023-02-06T12:34:16.586Z,11.10
2023-02-06T12:44:32.552Z,8.70
2023-02-06T12:50:13.720Z,9.20
2023-02-06T12:55:39.365Z,9.90
2023-02-06T13:01:02.362Z,6.00
2023-02-06T13:06:18.528Z,9.70
2023-02-06T13:11:23.533Z,15.70
2023-02-06T13:16:38.638Z,14.70
2023-02-06T13:21:40.132Z,9.40
2023-02-06T13:26:56.682Z,8.20
2023-02-06T13:32:10.595Z,8.50
2023-02-06T13:37:34.186Z,9.80
2023-02-06T13:42:49.028Z,7.40
2023-02-06T13:48:06.134Z,5.50
2023-02-06T13:53:22.945Z,5.90
2023-02-06T13:59:00.748Z,7.70
2023-02-06T14:04:09.367Z,5.70
2023-02-06T14:09:43.859Z,4.10
2023-02-06T14:15:12.979Z,3.30
2023-02-06T14:20:21.322Z,3.90
2023-02-06T14:25:37.664Z,4.10
2023-02-06T14:30:53.531Z,7.50
2023-02-06T14:36:30.492Z,7.70
2023-02-06T14:41:33.424Z,8.70
2023-02-06T14:46:35.369Z,7.50
2023-02-06T14:51:41.384Z,8.50
2023-02-06T14:56:43.141Z,7.70
2023-02-06T15:01:48.614Z,6.80
2023-02-06T15:06:56.701Z,3.70
2023-02-06T15:12:04.451Z,5.80
2023-02-06T15:17:06.000Z,5.70
2023-02-06T15:22:14.322Z,5.10
2023-02-06T15:27:29.248Z,4.80
2023-02-06T15:32:35.125Z,6.00
2023-02-06T15:37:36.656Z,6.70
2023-02-06T15:42:38.499Z,7.00
2023-02-06T15:47:41.548Z,7.10
2023-02-06T15:52:47.099Z,5.00
2023-02-06T15:57:49.850Z,7.90
2023-02-06T16:02:53.585Z,7.30
2023-02-06T16:07:55.468Z,7.50
2023-02-06T16:13:01.589Z,8.20
2023-02-06T16:18:40.187Z,8.90
2023-02-06T16:24:06.906Z,8.60
2023-02-06T16:29:08.401Z,9.20
2023-02-06T16:34:29.506Z,10.40
2023-02-06T16:39:30.989Z,15.00
2023-02-06T16:44:44.067Z,14.70
2023-02-06T16:49:49.953Z,15.10
2023-02-06T16:54:52.791Z,14.60
2023-02-06T16:59:54.828Z,13.70
2023-02-06T17:04:56.713Z,16.10
2023-02-06T17:09:58.865Z,15.80
2023-02-06T17:15:00.380Z,52.10
2023-02-06T17:20:02.151Z,39.90
2023-02-06T17:25:03.820Z,32.60
2023-02-06T17:30:06.209Z,25.90
2023-02-06T17:35:08.545Z,28.20
2023-02-06T17:40:18.080Z,30.90
2023-02-06T17:45:19.897Z,22.80
2023-02-06T17:50:25.074Z,20.10
2023-02-06T17:55:28.360Z,10.70
2023-02-06T18:00:30.458Z,22.70
2023-02-06T18:05:32.560Z,17.10
2023-02-06T18:10:34.365Z,16.00
2023-02-06T18:15:35.880Z,17.10
2023-02-06T18:20:37.680Z,17.70
2023-02-06T18:25:43.187Z,57.30
2023-02-06T18:30:45.560Z,35.50
2023-02-06T18:35:50.655Z,27.80
2023-02-06T18:40:52.496Z,31.60
2023-02-06T18:45:54.040Z,27.80
2023-02-06T18:50:58.127Z,28.80
2023-02-06T18:56:01.504Z,25.00
2023-02-06T19:01:11.290Z,22.50
2023-02-06T19:06:18.830Z,13.90
2023-02-06T19:11:20.360Z,16.60
2023-02-06T19:16:22.113Z,27.50
2023-02-06T19:21:25.318Z,56.10
2023-02-06T19:26:28.473Z,30.60
2023-02-06T19:31:31.987Z,23.40
2023-02-06T19:36:33.894Z,33.70
2023-02-06T19:41:36.116Z,28.30
2023-02-06T19:46:38.200Z,31.00
2023-02-06T19:51:44.479Z,29.00
2023-02-06T19:56:47.777Z,24.80
2023-02-06T20:01:52.332Z,65.30
2023-02-06T20:06:55.882Z,43.30
2023-02-06T20:11:57.946Z,41.50
2023-02-06T20:16:59.574Z,39.60
2023-02-06T20:22:02.588Z,37.00
2023-02-06T20:27:07.744Z,44.70
2023-02-06T20:32:11.090Z,41.80
2023-02-06T20:37:13.436Z,30.90
2023-02-06T20:42:15.633Z,82.40
2023-02-06T20:47:17.213Z,51.00
2023-02-06T20:52:19.426Z,45.00
2023-02-06T20:57:22.340Z,41.40
2023-02-06T21:02:24.512Z,42.40
2023-02-06T21:07:26.116Z,38.90
2023-02-06T21:12:27.641Z,34.60
2023-02-06T21:17:29.179Z,37.70
2023-02-06T21:22:30.645Z,79.10
2023-02-06T21:27:32.438Z,46.10
2023-02-06T21:32:33.984Z,51.40
2023-02-06T21:37:35.561Z,56.60
2023-02-06T21:42:37.069Z,53.50
2023-02-06T21:47:38.572Z,44.60
2023-02-06T21:52:40.253Z,42.30
2023-02-06T21:57:41.875Z,74.30
2023-02-06T22:02:43.809Z,56.00
2023-02-06T22:07:45.400Z,52.60
2023-02-06T22:12:49.956Z,48.30
2023-02-06T22:17:51.501Z,46.90
2023-02-06T22:22:54.219Z,44.70
2023-02-06T22:27:55.708Z,41.30
2023-02-06T22:32:57.598Z,89.20
2023-02-06T22:37:59.067Z,49.90
2023-02-06T22:43:00.608Z,48.10
2023-02-06T22:48:02.225Z,46.90
2023-02-06T22:53:22.500Z,43.10
2023-02-06T22:58:24.019Z,35.20
2023-02-06T23:03:25.531Z,38.70
2023-02-06T23:08:27.083Z,76.40
2023-02-06T23:13:29.384Z,46.40
2023-02-06T23:18:31.765Z,34.90
2023-02-06T23:23:33.921Z,36.80
2023-02-06T23:28:35.540Z,28.30
2023-02-06T23:33:37.597Z,32.90
2023-02-06T23:38:39.704Z,30.50
2023-02-06T23:43:42.104Z,30.40
2023-02-06T23:48:43.627Z,74.60
2023-02-06T23:53:45.180Z,32.80
2023-02-06T23:58:47.376Z,29.00
